PWSweather.com
Personal Weather Stations
Station Observations

YeovilGB

Lat: 50.949, Lon: -2.627

Elevation: 70

Station Type: Vantage Pro

http://www.yeovil-weather.me.uk/

High Low Average
Temperature 48.7°F9.3°F 42.0°F5.6°F 44.8°F7.1°F
Dew Point 46.0°F7.8°F 36.0°F2.2°F 39.9°F4.4°F
Winds 13.8 mph -22.2 mph - Calm Calm 4.5 mph 7.2 mph
Wind Gusts 27.6 mph44.4 mph -- 10.8 mph17.4 mph
Humidity 95% 65% 83%
Pressure 29.39 in995.30 in 29.10 in985.40 in -
Precipitation 0.41 in10.40 in - -
Hour Temp Dew Point Humidity Winds Wind Gusts Pressure Precip Precip Rate Daily Precip Total
12:00 AM 42.8°F6.0°C 41.5°F5.3°C 95% 3.5 mph WSW5.6 kmh WSW 8.1 mph13.0 kmh 29.10 in985.4 mb - 0.00 in0.0 mm 0.00 in0.0 mm
12:10 AM 42.7°F5.9°C 41.4°F5.2°C 95% 1.2 mph SW1.9 kmh SW 8.1 mph13.0 kmh 29.11 in985.8 mb - 0.00 in0.0 mm 0.00 in0.0 mm
12:20 AM 42.5°F5.8°C 41.2°F5.1°C 95% 2.3 mph SW3.7 kmh SW 6.9 mph11.1 kmh 29.12 in986.1 mb - 0.00 in0.0 mm 0.00 in0.0 mm
12:30 AM 42.2°F5.7°C 40.9°F4.9°C 95% Calm Calm 2.3 mph3.7 kmh 29.12 in986.1 mb - 0.00 in0.0 mm 0.00 in0.0 mm
12:40 AM 42.2°F5.7°C 40.9°F4.9°C 95% 1.2 mph SW1.9 kmh SW 4.6 mph7.4 kmh 29.12 in986.1 mb - 0.00 in0.0 mm 0.00 in0.0 mm
12:50 AM 42.3°F5.7°C 41.0°F5.0°C 95% 1.2 mph SSW1.9 kmh SSW 6.9 mph11.1 kmh 29.13 in986.5 mb - 0.00 in0.0 mm 0.00 in0.0 mm
01:00 AM 42.6°F5.9°C 41.3°F5.2°C 95% 1.2 mph SW1.9 kmh SW 9.2 mph14.8 kmh 29.13 in986.5 mb - 0.00 in0.0 mm 0.00 in0.0 mm
01:10 AM 42.8°F6.0°C 41.5°F5.3°C 95% 3.5 mph SSW5.6 kmh SSW 6.9 mph11.1 kmh 29.14 in986.8 mb - 0.00 in0.0 mm 0.00 in0.0 mm
01:20 AM 42.9°F6.1°C 41.6°F5.3°C 95% 1.2 mph SW1.9 kmh SW 8.1 mph13.0 kmh 29.14 in986.8 mb - 0.00 in0.0 mm 0.00 in0.0 mm
01:30 AM 43.0°F6.1°C 41.7°F5.4°C 95% 4.6 mph SW7.4 kmh SW 11.5 mph18.5 kmh 29.15 in987.1 mb - 0.00 in0.0 mm 0.00 in0.0 mm
01:40 AM 43.0°F6.1°C 41.7°F5.4°C 95% 5.8 mph SW9.3 kmh SW 15.0 mph24.1 kmh 29.16 in987.5 mb - 0.02 in0.5 mm 0.02 in0.5 mm
01:50 AM 42.9°F6.1°C 41.3°F5.2°C 94% 6.9 mph SW11.1 kmh SW 11.5 mph18.5 kmh 29.16 in987.5 mb - 0.02 in0.5 mm 0.03 in0.8 mm
02:00 AM 42.9°F6.1°C 41.3°F5.2°C 94% 5.8 mph SW9.3 kmh SW 11.5 mph18.5 kmh 29.17 in987.8 mb - 0.00 in0.0 mm 0.03 in0.8 mm
02:10 AM 43.1°F6.2°C 41.2°F5.1°C 93% 8.1 mph SW13.0 kmh SW 18.4 mph29.6 kmh 29.18 in988.1 mb - 0.00 in0.0 mm 0.03 in0.8 mm
02:20 AM 43.3°F6.3°C 41.1°F5.1°C 92% 8.1 mph SW13.0 kmh SW 12.7 mph20.4 kmh 29.19 in988.5 mb - 0.01 in0.3 mm 0.04 in1.0 mm
02:30 AM 43.2°F6.2°C 40.8°F4.9°C 91% 4.6 mph SW7.4 kmh SW 11.5 mph18.5 kmh 29.19 in988.5 mb - 0.00 in0.0 mm 0.04 in1.0 mm
02:40 AM 42.8°F6.0°C 40.4°F4.7°C 91% 1.2 mph SW1.9 kmh SW 5.8 mph9.3 kmh 29.19 in988.5 mb - 0.00 in0.0 mm 0.04 in1.0 mm
02:50 AM 42.4°F5.8°C 40.0°F4.4°C 91% 3.5 mph SW5.6 kmh SW 10.4 mph16.7 kmh 29.19 in988.5 mb - 0.00 in0.0 mm 0.04 in1.0 mm
03:00 AM 42.0°F5.6°C 39.6°F4.2°C 91% 4.6 mph SW7.4 kmh SW 6.9 mph11.1 kmh 29.20 in988.8 mb - 0.00 in0.0 mm 0.04 in1.0 mm
03:10 AM 42.1°F5.6°C 39.7°F4.3°C 91% 2.3 mph SW3.7 kmh SW 6.9 mph11.1 kmh 29.20 in988.8 mb - 0.00 in0.0 mm 0.04 in1.0 mm
03:20 AM 42.3°F5.7°C 39.9°F4.4°C 91% 8.1 mph SW13.0 kmh SW 18.4 mph29.6 kmh 29.20 in988.8 mb - 0.00 in0.0 mm 0.04 in1.0 mm
03:30 AM 42.7°F5.9°C 39.7°F4.3°C 89% 5.8 mph SW9.3 kmh SW 13.8 mph22.2 kmh 29.21 in989.2 mb - 0.00 in0.0 mm 0.04 in1.0 mm
03:40 AM 42.9°F6.1°C 39.3°F4.1°C 87% 8.1 mph SW13.0 kmh SW 13.8 mph22.2 kmh 29.22 in989.5 mb - 0.00 in0.0 mm 0.04 in1.0 mm
03:50 AM 43.1°F6.2°C 38.6°F3.7°C 84% 3.5 mph SW5.6 kmh SW 11.5 mph18.5 kmh 29.22 in989.5 mb - 0.00 in0.0 mm 0.04 in1.0 mm
04:00 AM 43.1°F6.2°C 38.0°F3.3°C 82% 5.8 mph SW9.3 kmh SW 9.2 mph14.8 kmh 29.23 in989.8 mb - 0.00 in0.0 mm 0.04 in1.0 mm
04:10 AM 43.1°F6.2°C 38.0°F3.3°C 82% 5.8 mph SW9.3 kmh SW 11.5 mph18.5 kmh 29.23 in989.8 mb - 0.00 in0.0 mm 0.04 in1.0 mm
04:20 AM 43.1°F6.2°C 38.0°F3.3°C 82% 10.4 mph SW16.7 kmh SW 12.7 mph20.4 kmh 29.25 in990.5 mb - 0.00 in0.0 mm 0.04 in1.0 mm
04:30 AM 43.4°F6.3°C 37.4°F3.0°C 79% 9.2 mph SW14.8 kmh SW 13.8 mph22.2 kmh 29.25 in990.5 mb - 0.00 in0.0 mm 0.04 in1.0 mm
04:40 AM 43.2°F6.2°C 37.5°F3.1°C 80% 6.9 mph WSW11.1 kmh WSW 11.5 mph18.5 kmh 29.25 in990.5 mb - 0.00 in0.0 mm 0.04 in1.0 mm
04:50 AM 43.0°F6.1°C 37.6°F3.1°C 81% Calm Calm 4.6 mph7.4 kmh 29.25 in990.5 mb - 0.00 in0.0 mm 0.04 in1.0 mm
05:00 AM 42.4°F5.8°C 37.6°F3.1°C 83% 1.2 mph SW1.9 kmh SW 3.5 mph5.6 kmh 29.25 in990.5 mb - 0.00 in0.0 mm 0.04 in1.0 mm
05:10 AM 42.1°F5.6°C 37.9°F3.3°C 85% 1.2 mph SSW1.9 kmh SSW 6.9 mph11.1 kmh 29.26 in990.9 mb - 0.00 in0.0 mm 0.04 in1.0 mm
05:20 AM 42.2°F5.7°C 38.3°F3.5°C 86% 2.3 mph SSW3.7 kmh SSW 10.4 mph16.7 kmh 29.26 in990.9 mb - 0.00 in0.0 mm 0.04 in1.0 mm
05:30 AM 42.5°F5.8°C 38.6°F3.7°C 86% 4.6 mph SSW7.4 kmh SSW 5.8 mph9.3 kmh 29.27 in991.2 mb - 0.00 in0.0 mm 0.04 in1.0 mm
05:40 AM 42.7°F5.9°C 38.8°F3.8°C 86% 1.2 mph SW1.9 kmh SW 8.1 mph13.0 kmh 29.26 in990.9 mb - 0.00 in0.0 mm 0.04 in1.0 mm
05:50 AM 42.9°F6.1°C 38.4°F3.6°C 84% 5.8 mph SW9.3 kmh SW 10.4 mph16.7 kmh 29.26 in990.9 mb - 0.00 in0.0 mm 0.04 in1.0 mm
06:00 AM 43.4°F6.3°C 38.3°F3.5°C 82% 3.5 mph SW5.6 kmh SW 12.7 mph20.4 kmh 29.26 in990.9 mb - 0.00 in0.0 mm 0.04 in1.0 mm
06:10 AM 43.7°F6.5°C 38.2°F3.4°C 81% 2.3 mph SW3.7 kmh SW 12.7 mph20.4 kmh 29.27 in991.2 mb - 0.00 in0.0 mm 0.04 in1.0 mm
06:20 AM 43.6°F6.4°C 38.5°F3.6°C 82% 3.5 mph SW5.6 kmh SW 3.5 mph5.6 kmh 29.27 in991.2 mb - 0.00 in0.0 mm 0.04 in1.0 mm
06:30 AM 43.4°F6.3°C 38.9°F3.8°C 84% Calm Calm -- 29.27 in991.2 mb - 0.00 in0.0 mm 0.04 in1.0 mm
06:40 AM 43.1°F6.2°C 38.9°F3.8°C 85% 1.2 mph SW1.9 kmh SW 5.8 mph9.3 kmh 29.27 in991.2 mb - 0.00 in0.0 mm 0.04 in1.0 mm
06:50 AM 42.8°F6.0°C 38.9°F3.8°C 86% 1.2 mph SW1.9 kmh SW 5.8 mph9.3 kmh 29.26 in990.9 mb - 0.00 in0.0 mm 0.04 in1.0 mm
07:00 AM 42.6°F5.9°C 39.0°F3.9°C 87% Calm Calm 2.3 mph3.7 kmh 29.26 in990.9 mb - 0.00 in0.0 mm 0.04 in1.0 mm
07:10 AM 42.6°F5.9°C 39.3°F4.1°C 88% 6.9 mph SSW11.1 kmh SSW 12.7 mph20.4 kmh 29.26 in990.9 mb - 0.00 in0.0 mm 0.04 in1.0 mm
07:20 AM 42.7°F5.9°C 39.4°F4.1°C 88% 2.3 mph SW3.7 kmh SW 6.9 mph11.1 kmh 29.25 in990.5 mb - 0.01 in0.3 mm 0.05 in1.3 mm
07:30 AM 42.6°F5.9°C 39.3°F4.1°C 88% 1.2 mph S1.9 kmh S 10.4 mph16.7 kmh 29.25 in990.5 mb - 0.00 in0.0 mm 0.05 in1.3 mm
07:40 AM 42.5°F5.8°C 39.5°F4.2°C 89% Calm Calm 4.6 mph7.4 kmh 29.25 in990.5 mb - 0.00 in0.0 mm 0.05 in1.3 mm
07:50 AM 42.6°F5.9°C 39.5°F4.2°C 89% 5.8 mph S9.3 kmh S 15.0 mph24.1 kmh 29.25 in990.5 mb - 0.00 in0.0 mm 0.05 in1.3 mm
08:00 AM 42.9°F6.1°C 39.9°F4.4°C 89% 4.6 mph SSW7.4 kmh SSW 12.7 mph20.4 kmh 29.25 in990.5 mb - 0.00 in0.0 mm 0.05 in1.3 mm
08:10 AM 43.1°F6.2°C 39.8°F4.3°C 88% 2.3 mph SSW3.7 kmh SSW 4.6 mph7.4 kmh 29.25 in990.5 mb - 0.00 in0.0 mm 0.05 in1.3 mm
08:20 AM 43.4°F6.3°C 40.1°F4.5°C 88% 10.4 mph SW16.7 kmh SW 19.6 mph31.5 kmh 29.25 in990.5 mb - 0.00 in0.0 mm 0.05 in1.3 mm
08:30 AM 43.7°F6.5°C 40.4°F4.7°C 88% 6.9 mph SSW11.1 kmh SSW 13.8 mph22.2 kmh 29.26 in990.9 mb - 0.00 in0.0 mm 0.05 in1.3 mm
08:40 AM 44.2°F6.8°C 40.3°F4.6°C 86% 11.5 mph SW18.5 kmh SW 20.7 mph33.3 kmh 29.27 in991.2 mb - 0.00 in0.0 mm 0.05 in1.3 mm
08:50 AM 44.5°F6.9°C 40.6°F4.8°C 86% 5.8 mph SSW9.3 kmh SSW 19.6 mph31.5 kmh 29.27 in991.2 mb - 0.00 in0.0 mm 0.05 in1.3 mm
09:00 AM 44.3°F6.8°C 40.4°F4.7°C 86% 9.2 mph SW14.8 kmh SW 13.8 mph22.2 kmh 29.28 in991.5 mb - 0.00 in0.0 mm 0.05 in1.3 mm
09:10 AM 44.2°F6.8°C 40.3°F4.6°C 86% 5.8 mph SW9.3 kmh SW 11.5 mph18.5 kmh 29.29 in991.9 mb - 0.00 in0.0 mm 0.05 in1.3 mm
09:20 AM 44.3°F6.8°C 39.8°F4.3°C 84% 9.2 mph SW14.8 kmh SW 19.6 mph31.5 kmh 29.29 in991.9 mb - 0.00 in0.0 mm 0.05 in1.3 mm
09:30 AM 44.7°F7.1°C 39.2°F4.0°C 81% 9.2 mph SW14.8 kmh SW 20.7 mph33.3 kmh 29.29 in991.9 mb - 0.00 in0.0 mm 0.05 in1.3 mm
09:40 AM 45.0°F7.2°C 39.5°F4.2°C 81% 8.1 mph SW13.0 kmh SW 19.6 mph31.5 kmh 29.30 in992.2 mb - 0.00 in0.0 mm 0.05 in1.3 mm
09:50 AM 44.6°F7.0°C 39.4°F4.1°C 82% 12.7 mph SW20.4 kmh SW 27.6 mph44.4 kmh 29.31 in992.6 mb - 0.00 in0.0 mm 0.05 in1.3 mm
10:00 AM 44.0°F6.7°C 38.9°F3.8°C 82% 3.5 mph SW5.6 kmh SW 10.4 mph16.7 kmh 29.33 in993.2 mb - 0.01 in0.3 mm 0.06 in1.5 mm
10:10 AM 44.2°F6.8°C 38.7°F3.7°C 81% 1.2 mph SSW1.9 kmh SSW 1.2 mph1.9 kmh 29.32 in992.9 mb - 0.00 in0.0 mm 0.06 in1.5 mm
10:20 AM 44.1°F6.7°C 38.0°F3.3°C 79% 3.5 mph SW5.6 kmh SW 5.8 mph9.3 kmh 29.33 in993.2 mb - 0.00 in0.0 mm 0.06 in1.5 mm
10:30 AM 44.3°F6.8°C 37.5°F3.1°C 77% 6.9 mph SW11.1 kmh SW 11.5 mph18.5 kmh 29.33 in993.2 mb - 0.00 in0.0 mm 0.06 in1.5 mm
10:40 AM 45.0°F7.2°C 37.9°F3.3°C 76% 4.6 mph SW7.4 kmh SW 13.8 mph22.2 kmh 29.34 in993.6 mb - 0.00 in0.0 mm 0.06 in1.5 mm
10:50 AM 45.4°F7.4°C 37.3°F2.9°C 73% 3.5 mph WSW5.6 kmh WSW 20.7 mph33.3 kmh 29.34 in993.6 mb - 0.00 in0.0 mm 0.06 in1.5 mm
11:00 AM 45.6°F7.6°C 36.7°F2.6°C 71% 9.2 mph WSW14.8 kmh WSW 16.1 mph25.9 kmh 29.34 in993.6 mb - 0.00 in0.0 mm 0.06 in1.5 mm
11:10 AM 46.3°F7.9°C 37.4°F3.0°C 71% 2.3 mph SW3.7 kmh SW 11.5 mph18.5 kmh 29.35 in993.9 mb - 0.00 in0.0 mm 0.06 in1.5 mm
11:20 AM 46.7°F8.2°C 37.4°F3.0°C 70% 6.9 mph SW11.1 kmh SW 11.5 mph18.5 kmh 29.36 in994.2 mb - 0.00 in0.0 mm 0.06 in1.5 mm
11:30 AM 46.0°F7.8°C 37.1°F2.8°C 71% 5.8 mph SW9.3 kmh SW 9.2 mph14.8 kmh 29.36 in994.2 mb - 0.00 in0.0 mm 0.06 in1.5 mm
11:40 AM 45.8°F7.7°C 38.0°F3.3°C 74% 3.5 mph SW5.6 kmh SW 4.6 mph7.4 kmh 29.36 in994.2 mb - 0.00 in0.0 mm 0.06 in1.5 mm
11:50 AM 45.7°F7.6°C 37.9°F3.3°C 74% 1.2 mph S1.9 kmh S 6.9 mph11.1 kmh 29.36 in994.2 mb - 0.00 in0.0 mm 0.06 in1.5 mm
12:00 PM 46.4°F8.0°C 38.2°F3.4°C 73% 1.2 mph WSW1.9 kmh WSW -- 29.37 in994.6 mb - 0.00 in0.0 mm 0.06 in1.5 mm
12:10 PM 47.1°F8.4°C 38.2°F3.4°C 71% 4.6 mph SW7.4 kmh SW 10.4 mph16.7 kmh 29.37 in994.6 mb - 0.00 in0.0 mm 0.06 in1.5 mm
12:20 PM 47.3°F8.5°C 38.0°F3.3°C 70% 4.6 mph SW7.4 kmh SW 11.5 mph18.5 kmh 29.38 in994.9 mb - 0.00 in0.0 mm 0.06 in1.5 mm
12:30 PM 47.2°F8.4°C 37.2°F2.9°C 68% 8.1 mph SW13.0 kmh SW 19.6 mph31.5 kmh 29.38 in994.9 mb - 0.00 in0.0 mm 0.06 in1.5 mm
12:40 PM 47.4°F8.6°C 36.6°F2.6°C 66% 8.1 mph SW13.0 kmh SW 13.8 mph22.2 kmh 29.38 in994.9 mb - 0.00 in0.0 mm 0.06 in1.5 mm
12:50 PM 47.8°F8.8°C 36.6°F2.6°C 65% 10.4 mph SW16.7 kmh SW 18.4 mph29.6 kmh 29.38 in994.9 mb - 0.00 in0.0 mm 0.06 in1.5 mm
01:00 PM 47.8°F8.8°C 36.6°F2.6°C 65% 9.2 mph SSW14.8 kmh SSW 12.7 mph20.4 kmh 29.38 in994.9 mb - 0.00 in0.0 mm 0.06 in1.5 mm
01:10 PM 47.4°F8.6°C 37.0°F2.8°C 67% 2.3 mph S3.7 kmh S 9.2 mph14.8 kmh 29.38 in994.9 mb - 0.00 in0.0 mm 0.06 in1.5 mm
01:20 PM 47.3°F8.5°C 37.3°F2.9°C 68% 1.2 mph SW1.9 kmh SW 4.6 mph7.4 kmh 29.38 in994.9 mb - 0.00 in0.0 mm 0.06 in1.5 mm
01:30 PM 47.3°F8.5°C 37.3°F2.9°C 68% 9.2 mph SW14.8 kmh SW 12.7 mph20.4 kmh 29.38 in994.9 mb - 0.00 in0.0 mm 0.06 in1.5 mm
01:40 PM 47.3°F8.5°C 37.3°F2.9°C 68% 9.2 mph SW14.8 kmh SW 13.8 mph22.2 kmh 29.38 in994.9 mb - 0.00 in0.0 mm 0.06 in1.5 mm
01:50 PM 47.3°F8.5°C 36.5°F2.5°C 66% 5.8 mph SW9.3 kmh SW 13.8 mph22.2 kmh 29.37 in994.6 mb - 0.00 in0.0 mm 0.06 in1.5 mm
02:00 PM 47.2°F8.4°C 36.0°F2.2°C 65% 6.9 mph SW11.1 kmh SW 13.8 mph22.2 kmh 29.37 in994.6 mb - 0.00 in0.0 mm 0.06 in1.5 mm
02:10 PM 47.0°F8.3°C 36.2°F2.3°C 66% 3.5 mph SW5.6 kmh SW 11.5 mph18.5 kmh 29.38 in994.9 mb - 0.00 in0.0 mm 0.06 in1.5 mm
02:20 PM 46.9°F8.3°C 36.9°F2.7°C 68% 4.6 mph SW7.4 kmh SW 10.4 mph16.7 kmh 29.37 in994.6 mb - 0.00 in0.0 mm 0.06 in1.5 mm
02:30 PM 46.7°F8.2°C 37.4°F3.0°C 70% 5.8 mph SSW9.3 kmh SSW 11.5 mph18.5 kmh 29.37 in994.6 mb - 0.00 in0.0 mm 0.06 in1.5 mm
02:40 PM 46.5°F8.1°C 37.6°F3.1°C 71% 1.2 mph SW1.9 kmh SW 8.1 mph13.0 kmh 29.38 in994.9 mb - 0.00 in0.0 mm 0.06 in1.5 mm
02:50 PM 46.2°F7.9°C 37.3°F2.9°C 71% 5.8 mph SW9.3 kmh SW 9.2 mph14.8 kmh 29.38 in994.9 mb - 0.00 in0.0 mm 0.06 in1.5 mm
03:00 PM 46.0°F7.8°C 37.1°F2.8°C 71% 4.6 mph SSW7.4 kmh SSW 10.4 mph16.7 kmh 29.39 in995.3 mb - 0.00 in0.0 mm 0.06 in1.5 mm
03:10 PM 45.8°F7.7°C 36.9°F2.7°C 71% 2.3 mph SSW3.7 kmh SSW 4.6 mph7.4 kmh 29.38 in994.9 mb - 0.00 in0.0 mm 0.06 in1.5 mm
03:20 PM 45.6°F7.6°C 36.7°F2.6°C 71% 1.2 mph SSW1.9 kmh SSW 5.8 mph9.3 kmh 29.38 in994.9 mb - 0.00 in0.0 mm 0.06 in1.5 mm
03:30 PM 45.4°F7.4°C 36.5°F2.5°C 71% 1.2 mph S1.9 kmh S 6.9 mph11.1 kmh 29.38 in994.9 mb - 0.00 in0.0 mm 0.06 in1.5 mm
03:40 PM 45.1°F7.3°C 36.6°F2.6°C 72% 2.3 mph S3.7 kmh S 8.1 mph13.0 kmh 29.38 in994.9 mb - 0.00 in0.0 mm 0.06 in1.5 mm
03:50 PM 44.8°F7.1°C 36.3°F2.4°C 72% 1.2 mph SSW1.9 kmh SSW 6.9 mph11.1 kmh 29.37 in994.6 mb - 0.00 in0.0 mm 0.06 in1.5 mm
04:00 PM 44.7°F7.1°C 36.6°F2.6°C 73% 3.5 mph S5.6 kmh S 9.2 mph14.8 kmh 29.37 in994.6 mb - 0.00 in0.0 mm 0.06 in1.5 mm
04:10 PM 44.6°F7.0°C 36.8°F2.7°C 74% 1.2 mph SSW1.9 kmh SSW 3.5 mph5.6 kmh 29.37 in994.6 mb - 0.00 in0.0 mm 0.06 in1.5 mm
04:20 PM 44.5°F6.9°C 37.1°F2.8°C 75% 1.2 mph SSW1.9 kmh SSW 4.6 mph7.4 kmh 29.36 in994.2 mb - 0.00 in0.0 mm 0.06 in1.5 mm
04:30 PM 44.5°F6.9°C 37.1°F2.8°C 75% 3.5 mph S5.6 kmh S 9.2 mph14.8 kmh 29.36 in994.2 mb - 0.00 in0.0 mm 0.06 in1.5 mm
04:40 PM 44.5°F6.9°C 37.4°F3.0°C 76% 1.2 mph S1.9 kmh S 4.6 mph7.4 kmh 29.35 in993.9 mb - 0.00 in0.0 mm 0.06 in1.5 mm
04:50 PM 44.3°F6.8°C 37.5°F3.1°C 77% 4.6 mph S7.4 kmh S 10.4 mph16.7 kmh 29.34 in993.6 mb - 0.00 in0.0 mm 0.06 in1.5 mm
05:00 PM 44.5°F6.9°C 38.0°F3.3°C 78% 3.5 mph S5.6 kmh S 6.9 mph11.1 kmh 29.34 in993.6 mb - 0.00 in0.0 mm 0.06 in1.5 mm
05:10 PM 44.5°F6.9°C 38.4°F3.6°C 79% 2.3 mph S3.7 kmh S 6.9 mph11.1 kmh 29.33 in993.2 mb - 0.00 in0.0 mm 0.06 in1.5 mm
05:20 PM 45.4°F7.4°C 40.2°F4.6°C 82% 5.8 mph S9.3 kmh S 9.2 mph14.8 kmh 29.32 in992.9 mb - 0.00 in0.0 mm 0.06 in1.5 mm
05:30 PM 46.7°F8.2°C 41.2°F5.1°C 81% 10.4 mph S16.7 kmh S 16.1 mph25.9 kmh 29.31 in992.6 mb - 0.00 in0.0 mm 0.06 in1.5 mm
05:40 PM 47.3°F8.5°C 41.4°F5.2°C 80% 2.3 mph S3.7 kmh S 11.5 mph18.5 kmh 29.30 in992.2 mb - 0.00 in0.0 mm 0.06 in1.5 mm
05:50 PM 47.3°F8.5°C 41.5°F5.3°C 80% 2.3 mph S3.7 kmh S 11.5 mph18.5 kmh 29.29 in991.9 mb - 0.00 in0.0 mm 0.06 in1.5 mm
06:00 PM 47.5°F8.6°C 42.0°F5.6°C 81% 4.6 mph SSE7.4 kmh SSE 11.5 mph18.5 kmh 29.28 in991.5 mb - 0.00 in0.0 mm 0.06 in1.5 mm
06:10 PM 47.7°F8.7°C 42.5°F5.8°C 82% 6.9 mph S11.1 kmh S 19.6 mph31.5 kmh 29.27 in991.2 mb - 0.00 in0.0 mm 0.06 in1.5 mm
06:20 PM 48.0°F8.9°C 43.1°F6.2°C 83% 6.9 mph S11.1 kmh S 11.5 mph18.5 kmh 29.26 in990.9 mb - 0.00 in0.0 mm 0.06 in1.5 mm
06:30 PM 48.4°F9.1°C 43.5°F6.4°C 83% 9.2 mph S14.8 kmh S 15.0 mph24.1 kmh 29.25 in990.5 mb - 0.00 in0.0 mm 0.06 in1.5 mm
06:40 PM 48.7°F9.3°C 43.8°F6.6°C 83% 1.2 mph S1.9 kmh S 15.0 mph24.1 kmh 29.24 in990.2 mb - 0.00 in0.0 mm 0.06 in1.5 mm
06:50 PM 48.6°F9.2°C 44.6°F7.0°C 86% 13.8 mph S22.2 kmh S 19.6 mph31.5 kmh 29.24 in990.2 mb - 0.02 in0.5 mm 0.07 in1.8 mm
07:00 PM 48.5°F9.2°C 45.4°F7.4°C 89% 11.5 mph SSW18.5 kmh SSW 19.6 mph31.5 kmh 29.24 in990.2 mb - 0.02 in0.5 mm 0.08 in2.0 mm
07:10 PM 48.4°F9.1°C 45.6°F7.6°C 90% 9.2 mph S14.8 kmh S 19.6 mph31.5 kmh 29.23 in989.8 mb - 0.02 in0.5 mm 0.10 in2.5 mm
07:20 PM 48.2°F9.0°C 45.7°F7.6°C 91% 11.5 mph S18.5 kmh S 23.0 mph37.0 kmh 29.24 in990.2 mb - 0.03 in0.8 mm 0.13 in3.3 mm
07:30 PM 48.1°F8.9°C 45.9°F7.7°C 92% 6.9 mph SSW11.1 kmh SSW 19.6 mph31.5 kmh 29.23 in989.8 mb - 0.04 in1.0 mm 0.17 in4.3 mm
07:40 PM 48.2°F9.0°C 46.0°F7.8°C 92% 9.2 mph SW14.8 kmh SW 25.3 mph40.7 kmh 29.24 in990.2 mb - 0.07 in1.8 mm 0.24 in6.1 mm
07:50 PM 46.9°F8.3°C 44.4°F6.9°C 91% 5.8 mph SW9.3 kmh SW 11.5 mph18.5 kmh 29.23 in989.8 mb - 0.03 in0.8 mm 0.26 in6.6 mm
08:00 PM 46.2°F7.9°C 43.7°F6.5°C 91% 4.6 mph SSW7.4 kmh SSW 13.8 mph22.2 kmh 29.23 in989.8 mb - 0.00 in0.0 mm 0.26 in6.6 mm
08:10 PM 46.1°F7.8°C 43.6°F6.4°C 91% 1.2 mph SSW1.9 kmh SSW 5.8 mph9.3 kmh 29.23 in989.8 mb - 0.00 in0.0 mm 0.26 in6.6 mm
08:20 PM 46.2°F7.9°C 44.0°F6.7°C 92% 2.3 mph SW3.7 kmh SW 9.2 mph14.8 kmh 29.22 in989.5 mb - 0.00 in0.0 mm 0.26 in6.6 mm
08:30 PM 46.2°F7.9°C 44.0°F6.7°C 92% 3.5 mph SSW5.6 kmh SSW 11.5 mph18.5 kmh 29.21 in989.2 mb - 0.01 in0.3 mm 0.27 in6.9 mm
09:00 PM 46.0°F7.8°C 43.5°F6.4°C 91% 2.3 mph SSW3.7 kmh SSW 13.8 mph22.2 kmh 29.19 in988.5 mb - 0.01 in0.3 mm 0.27 in6.9 mm
09:10 PM 46.0°F7.8°C 43.5°F6.4°C 91% Calm Calm 8.1 mph13.0 kmh 29.18 in988.1 mb - 0.01 in0.3 mm 0.28 in7.1 mm
09:20 PM 46.2°F7.9°C 44.0°F6.7°C 92% 4.6 mph SW7.4 kmh SW 11.5 mph18.5 kmh 29.17 in987.8 mb - 0.00 in0.0 mm 0.28 in7.1 mm
09:30 PM 46.5°F8.1°C 44.3°F6.8°C 92% 1.2 mph SSW1.9 kmh SSW 1.2 mph1.9 kmh 29.17 in987.8 mb - 0.00 in0.0 mm 0.28 in7.1 mm
09:40 PM 46.5°F8.1°C 44.3°F6.8°C 92% Calm Calm -- 29.18 in988.1 mb - 0.01 in0.3 mm 0.28 in7.1 mm
09:50 PM 46.4°F8.0°C 44.2°F6.8°C 92% 1.2 mph SW1.9 kmh SW 4.6 mph7.4 kmh 29.18 in988.1 mb - 0.00 in0.0 mm 0.28 in7.1 mm
10:00 PM 46.3°F7.9°C 44.4°F6.9°C 93% 3.5 mph SSW5.6 kmh SSW 8.1 mph13.0 kmh 29.18 in988.1 mb - 0.02 in0.5 mm 0.30 in7.6 mm
10:10 PM 46.0°F7.8°C 44.1°F6.7°C 93% 3.5 mph SW5.6 kmh SW 10.4 mph16.7 kmh 29.18 in988.1 mb - 0.02 in0.5 mm 0.32 in8.1 mm
10:20 PM 45.8°F7.7°C 43.6°F6.4°C 92% 1.2 mph SW1.9 kmh SW 11.5 mph18.5 kmh 29.18 in988.1 mb - 0.01 in0.3 mm 0.33 in8.4 mm
10:30 PM 44.9°F7.2°C 42.4°F5.8°C 91% 5.8 mph SSW9.3 kmh SSW 12.7 mph20.4 kmh 29.19 in988.5 mb - 0.01 in0.3 mm 0.33 in8.4 mm
10:40 PM 44.5°F6.9°C 41.7°F5.4°C 90% 3.5 mph SW5.6 kmh SW 12.7 mph20.4 kmh 29.20 in988.8 mb - 0.00 in0.0 mm 0.33 in8.4 mm
10:50 PM 44.2°F6.8°C 41.5°F5.3°C 90% 4.6 mph SSW7.4 kmh SSW 11.5 mph18.5 kmh 29.19 in988.5 mb - 0.01 in0.3 mm 0.34 in8.6 mm
11:00 PM 44.2°F6.8°C 41.4°F5.2°C 90% 4.6 mph SSW7.4 kmh SSW 13.8 mph22.2 kmh 29.19 in988.5 mb - 0.00 in0.0 mm 0.34 in8.6 mm
11:10 PM 44.2°F6.8°C 41.5°F5.3°C 90% 3.5 mph SW5.6 kmh SW 8.1 mph13.0 kmh 29.19 in988.5 mb - 0.00 in0.0 mm 0.34 in8.6 mm
11:20 PM 44.0°F6.7°C 41.3°F5.2°C 90% 2.3 mph SW3.7 kmh SW 12.7 mph20.4 kmh 29.18 in988.1 mb - 0.00 in0.0 mm 0.34 in8.6 mm
11:30 PM 43.7°F6.5°C 41.0°F5.0°C 90% Calm Calm 5.8 mph9.3 kmh 29.17 in987.8 mb - 0.00 in0.0 mm 0.34 in8.6 mm
11:40 PM 43.6°F6.4°C 41.1°F5.1°C 91% 1.2 mph SSW1.9 kmh SSW 8.1 mph13.0 kmh 29.17 in987.8 mb - 0.00 in0.0 mm 0.34 in8.6 mm
11:50 PM 43.6°F6.4°C 41.1°F5.1°C 91% 2.3 mph SSW3.7 kmh SSW 8.1 mph13.0 kmh 29.19 in988.5 mb - 0.00 in0.0 mm 0.34 in8.6 mm